createdAt,value
2018-03-19T00:00:54.734Z,-3.10
2018-03-19T00:03:22.298Z,-3.00
2018-03-19T00:05:49.840Z,-2.90
2018-03-19T00:08:17.388Z,-3.20
2018-03-19T00:10:45.694Z,-2.90
2018-03-19T00:13:13.257Z,-2.90
2018-03-19T00:15:40.826Z,-2.90
2018-03-19T00:18:08.374Z,-2.90
2018-03-19T00:20:35.949Z,-2.90
2018-03-19T00:23:03.509Z,-2.80
2018-03-19T00:25:31.058Z,-2.90
2018-03-19T00:27:58.623Z,-2.90
2018-03-19T00:30:26.168Z,-3.10
2018-03-19T00:32:53.734Z,-3.00
2018-03-19T00:35:21.438Z,-3.00
2018-03-19T00:37:48.913Z,-3.00
2018-03-19T00:40:17.222Z,-2.80
2018-03-19T00:42:44.776Z,-2.90
2018-03-19T00:45:12.350Z,-2.80
2018-03-19T00:47:39.877Z,-2.90
2018-03-19T00:50:08.192Z,-2.80
2018-03-19T00:52:35.728Z,-2.90
2018-03-19T00:55:03.285Z,-2.90
2018-03-19T00:57:31.598Z,-2.90
2018-03-19T00:59:59.164Z,-2.90
2018-03-19T01:02:26.706Z,-3.00
2018-03-19T01:04:54.285Z,-3.00
2018-03-19T01:07:21.824Z,-3.30
2018-03-19T01:09:49.377Z,-3.30
2018-03-19T01:12:16.950Z,-3.10
2018-03-19T01:14:44.484Z,-3.00
2018-03-19T01:17:12.832Z,-2.90
2018-03-19T01:19:40.372Z,-2.90
2018-03-19T01:22:08.720Z,-3.10
2018-03-19T01:24:36.268Z,-3.10
2018-03-19T01:27:03.823Z,-3.10
2018-03-19T01:29:31.372Z,-3.00
2018-03-19T01:31:58.948Z,-2.80
2018-03-19T01:34:26.491Z,-2.70
2018-03-19T01:36:54.060Z,-2.80
2018-03-19T01:39:21.605Z,-2.70
2018-03-19T01:41:49.144Z,-2.70
2018-03-19T01:44:16.704Z,-2.70
2018-03-19T01:46:44.243Z,-2.70
2018-03-19T01:49:12.560Z,-2.80
2018-03-19T01:51:40.162Z,-2.90
2018-03-19T01:54:07.739Z,-2.80
2018-03-19T01:56:36.059Z,-2.70
2018-03-19T01:59:03.623Z,-2.70
2018-03-19T02:01:31.425Z,-2.80
2018-03-19T02:03:58.973Z,-2.80
2018-03-19T02:06:26.524Z,-2.70
2018-03-19T02:08:54.068Z,-2.70
2018-03-19T02:11:21.632Z,-2.70
2018-03-19T02:13:49.187Z,-2.70
2018-03-19T02:16:16.727Z,-2.70
2018-03-19T02:18:44.291Z,-2.60
2018-03-19T02:21:11.895Z,-2.70
2018-03-19T02:23:39.449Z,-2.70
2018-03-19T02:26:07.041Z,-2.60
2018-03-19T02:28:35.361Z,-2.80
2018-03-19T02:31:02.923Z,-2.80
2018-03-19T02:33:30.478Z,-2.70
2018-03-19T02:35:58.039Z,-2.70
2018-03-19T02:38:25.580Z,-2.70
2018-03-19T02:40:53.160Z,-2.70
2018-03-19T02:43:20.707Z,-2.80
2018-03-19T02:45:48.248Z,-2.70
2018-03-19T02:48:16.572Z,-2.70
2018-03-19T02:50:44.121Z,-2.70
2018-03-19T02:53:11.682Z,-2.70
2018-03-19T02:55:39.229Z,-2.70
2018-03-19T02:58:06.790Z,-2.70
2018-03-19T03:00:34.345Z,-2.80
2018-03-19T03:03:01.903Z,-2.80
2018-03-19T03:05:29.469Z,-2.80
2018-03-19T03:07:57.013Z,-2.80
2018-03-19T03:10:25.340Z,-2.90
2018-03-19T03:12:52.889Z,-2.90
2018-03-19T03:15:20.469Z,-2.80
2018-03-19T03:17:48.013Z,-2.70
2018-03-19T03:20:15.585Z,-2.80
2018-03-19T03:22:43.144Z,-2.90
2018-03-19T03:25:10.708Z,-2.90
2018-03-19T03:27:38.271Z,-2.80
2018-03-19T03:30:05.825Z,-2.80
2018-03-19T03:32:33.409Z,-2.80
2018-03-19T03:35:00.986Z,-2.80
2018-03-19T03:37:29.312Z,-2.90
2018-03-19T03:39:56.857Z,-2.90
2018-03-19T03:42:24.422Z,-2.90
2018-03-19T03:44:52.006Z,-2.90
2018-03-19T03:47:19.565Z,-2.80
2018-03-19T03:49:47.124Z,-2.80
2018-03-19T03:52:14.672Z,-2.90
2018-03-19T03:54:42.244Z,-3.00
2018-03-19T03:57:09.802Z,-3.10
2018-03-19T03:59:37.356Z,-3.20
2018-03-19T04:02:04.898Z,-3.00
2018-03-19T04:04:32.451Z,-2.90
2018-03-19T04:07:00.012Z,-2.90
2018-03-19T04:09:27.564Z,-2.90
2018-03-19T04:11:55.102Z,-2.80
2018-03-19T04:14:23.401Z,-2.80
2018-03-19T04:16:50.956Z,-2.80
2018-03-19T04:19:18.485Z,-2.80
2018-03-19T04:21:46.808Z,-2.90
2018-03-19T04:24:14.355Z,-3.00
2018-03-19T04:26:41.948Z,-3.10
2018-03-19T04:29:09.495Z,-3.00
2018-03-19T04:31:37.101Z,-3.00
2018-03-19T04:34:04.610Z,-2.90
2018-03-19T04:36:32.184Z,-3.00
2018-03-19T04:38:59.750Z,-3.10
2018-03-19T04:41:27.320Z,-3.00
2018-03-19T04:43:54.889Z,-3.00
2018-03-19T04:46:22.429Z,-2.90
2018-03-19T04:48:50.756Z,-2.90
2018-03-19T04:51:18.322Z,-2.90
2018-03-19T04:53:45.891Z,-2.90
2018-03-19T04:56:13.475Z,-2.90
2018-03-19T04:58:41.040Z,-2.80
2018-03-19T05:01:08.592Z,-2.90
2018-03-19T05:03:36.173Z,-3.00
2018-03-19T05:06:04.483Z,-3.10
2018-03-19T05:08:32.316Z,-3.00
2018-03-19T05:10:59.867Z,-3.10
2018-03-19T05:13:27.400Z,-3.20
2018-03-19T05:15:54.998Z,-3.10
2018-03-19T05:18:22.529Z,-3.30
2018-03-19T05:20:50.079Z,-3.20
2018-03-19T05:23:17.620Z,-3.10
2018-03-19T05:25:45.953Z,-3.00
2018-03-19T05:28:13.505Z,-3.00
2018-03-19T05:30:41.245Z,-3.00
2018-03-19T05:33:08.851Z,-3.00
2018-03-19T05:35:36.365Z,-2.90
2018-03-19T05:38:03.921Z,-3.20
2018-03-19T05:40:31.459Z,-3.20
2018-03-19T05:42:59.016Z,-3.20
2018-03-19T05:45:27.324Z,-3.20
2018-03-19T05:47:54.876Z,-3.20
2018-03-19T05:50:22.408Z,-3.10
2018-03-19T05:52:50.752Z,-2.90
2018-03-19T05:55:18.300Z,-2.90
2018-03-19T05:57:45.852Z,-2.80
2018-03-19T06:00:13.416Z,-2.80
2018-03-19T06:02:41.004Z,-2.80
2018-03-19T06:05:08.564Z,-2.80
2018-03-19T06:07:36.115Z,-2.80
2018-03-19T06:10:03.673Z,-2.70
2018-03-19T06:12:31.220Z,-2.80
2018-03-19T06:14:58.794Z,-2.80
2018-03-19T06:17:26.331Z,-2.70
2018-03-19T06:19:53.896Z,-2.70
2018-03-19T06:22:21.448Z,-2.70
2018-03-19T06:24:48.988Z,-2.70
2018-03-19T06:27:17.330Z,-2.60
2018-03-19T06:29:44.873Z,-2.50
2018-03-19T06:32:12.429Z,-2.50
2018-03-19T06:34:39.971Z,-2.60
2018-03-19T06:37:07.536Z,-2.50
2018-03-19T06:39:35.104Z,-2.50
2018-03-19T06:42:02.668Z,-2.50
2018-03-19T06:44:30.213Z,-2.50
2018-03-19T06:46:59.792Z,-2.50
2018-03-19T06:49:27.337Z,-2.50
2018-03-19T06:51:55.100Z,-2.50
2018-03-19T06:54:23.407Z,-2.50
2018-03-19T06:56:50.983Z,-2.50
2018-03-19T06:59:18.534Z,-2.50
2018-03-19T07:01:46.065Z,-2.50
2018-03-19T07:04:14.411Z,-2.50
2018-03-19T07:06:41.966Z,-2.50
2018-03-19T07:09:09.551Z,-2.50
2018-03-19T07:11:37.107Z,-2.60
2018-03-19T07:14:04.665Z,-2.50
2018-03-19T07:16:32.213Z,-2.50
2018-03-19T07:18:59.777Z,-2.40
2018-03-19T07:21:27.323Z,-2.50
2018-03-19T07:23:54.896Z,-2.60
2018-03-19T07:26:22.441Z,-2.70
2018-03-19T07:28:50.009Z,-2.60
2018-03-19T07:31:17.543Z,-2.60
2018-03-19T07:33:45.117Z,-2.50
2018-03-19T07:36:12.673Z,-2.60
2018-03-19T07:38:40.213Z,-2.50
2018-03-19T07:41:07.780Z,-2.50
2018-03-19T07:43:35.339Z,-2.30
2018-03-19T07:46:02.922Z,-2.30
2018-03-19T07:48:31.036Z,-2.20
2018-03-19T07:50:58.584Z,-2.30
2018-03-19T07:53:26.149Z,-2.30
2018-03-19T07:55:54.491Z,-2.30
2018-03-19T07:58:22.128Z,-2.40
2018-03-19T08:00:49.676Z,-2.30
2018-03-19T08:03:17.240Z,-1.70
2018-03-19T08:05:44.847Z,-1.60
2018-03-19T08:08:12.397Z,-1.40
2018-03-19T08:10:39.963Z,-1.70
2018-03-19T08:13:07.521Z,-1.60
2018-03-19T08:15:35.076Z,-1.20
2018-03-19T08:18:02.649Z,-0.80
2018-03-19T08:20:30.200Z,-0.80
2018-03-19T08:22:57.748Z,-1.10
2018-03-19T08:25:25.314Z,-1.10
2018-03-19T08:27:52.850Z,-1.50
2018-03-19T08:30:20.425Z,-1.50
2018-03-19T08:32:47.965Z,-1.20
2018-03-19T08:35:15.532Z,-1.40
2018-03-19T08:37:43.073Z,-1.10
2018-03-19T08:40:10.661Z,-0.80
2018-03-19T08:42:38.197Z,-0.40
2018-03-19T08:45:05.733Z,-0.30
2018-03-19T08:47:34.046Z,0.10
2018-03-19T08:50:01.607Z,0.10
2018-03-19T08:52:29.170Z,-0.40
2018-03-19T08:54:56.727Z,-0.80
2018-03-19T08:57:24.281Z,-0.90
2018-03-19T08:59:51.860Z,-0.70
2018-03-19T09:02:19.731Z,-0.80
2018-03-19T09:04:48.113Z,-0.30
2018-03-19T09:07:15.712Z,0.10
2018-03-19T09:09:43.241Z,0.40
2018-03-19T09:12:10.774Z,0.60
2018-03-19T09:14:38.335Z,1.00
2018-03-19T09:17:05.880Z,0.90
2018-03-19T09:19:33.456Z,0.60
2018-03-19T09:22:01.025Z,0.60
2018-03-19T09:24:28.577Z,0.90
2018-03-19T09:26:56.152Z,0.30
2018-03-19T09:29:23.696Z,0.60
2018-03-19T09:31:51.260Z,0.10
2018-03-19T09:34:18.796Z,-0.10
2018-03-19T09:36:46.352Z,-0.10
2018-03-19T09:39:13.893Z,0.10
2018-03-19T09:41:42.208Z,0.90
2018-03-19T09:44:09.752Z,0.90
2018-03-19T09:46:37.325Z,1.20
2018-03-19T09:49:04.868Z,1.10
2018-03-19T09:51:32.458Z,1.10
2018-03-19T09:53:59.984Z,1.30
2018-03-19T09:56:27.529Z,1.00
2018-03-19T09:58:55.837Z,0.80
2018-03-19T10:01:23.407Z,0.80
2018-03-19T10:03:50.970Z,0.60
2018-03-19T10:06:18.535Z,0.80
2018-03-19T10:08:46.063Z,1.10
2018-03-19T10:11:13.658Z,0.40
2018-03-19T10:13:41.192Z,0.20
2018-03-19T10:16:08.725Z,0.30
2018-03-19T10:18:37.054Z,1.10
2018-03-19T10:21:04.609Z,1.10
2018-03-19T10:23:32.166Z,1.00
2018-03-19T10:25:59.715Z,1.10
2018-03-19T10:28:27.274Z,0.80
2018-03-19T10:30:54.815Z,0.80
2018-03-19T10:33:22.423Z,1.10
2018-03-19T10:35:49.943Z,1.30
2018-03-19T10:38:17.495Z,1.10
2018-03-19T10:40:45.034Z,1.30
2018-03-19T10:43:13.366Z,1.70
2018-03-19T10:45:40.893Z,1.70
2018-03-19T10:48:08.457Z,1.90
2018-03-19T10:50:36.022Z,1.80
2018-03-19T10:53:03.597Z,2.00
2018-03-19T10:55:31.162Z,2.20
2018-03-19T10:57:58.744Z,2.20
2018-03-19T11:00:26.273Z,1.70
2018-03-19T11:03:09.672Z,1.40
2018-03-19T11:05:42.871Z,1.60
2018-03-19T11:08:10.426Z,1.80
2018-03-19T11:10:37.995Z,1.90
2018-03-19T11:13:05.530Z,2.20
2018-03-19T11:15:33.089Z,2.10
2018-03-19T11:18:00.624Z,1.90
2018-03-19T11:20:28.193Z,2.00
2018-03-19T11:22:56.553Z,2.70
2018-03-19T11:25:24.090Z,2.70
2018-03-19T11:27:51.651Z,3.30
2018-03-19T11:30:19.211Z,3.20
2018-03-19T11:32:46.782Z,3.50
2018-03-19T11:35:14.333Z,4.10
2018-03-19T11:37:41.930Z,3.50
2018-03-19T11:40:10.229Z,2.90
2018-03-19T11:42:37.787Z,2.90
2018-03-19T11:45:05.331Z,3.00
2018-03-19T11:47:32.894Z,2.80
2018-03-19T11:50:00.454Z,2.70
2018-03-19T11:52:28.084Z,2.40
2018-03-19T11:54:55.635Z,1.90
2018-03-19T11:57:23.964Z,1.80
2018-03-19T11:59:51.528Z,1.80
2018-03-19T12:02:19.080Z,2.00
2018-03-19T12:04:46.616Z,2.10
2018-03-19T12:07:14.290Z,2.10
2018-03-19T12:09:41.845Z,2.10
2018-03-19T12:12:09.414Z,2.10
2018-03-19T12:14:36.958Z,2.10
2018-03-19T12:17:04.495Z,2.00
2018-03-19T12:19:32.079Z,1.90
2018-03-19T12:21:59.620Z,1.70
2018-03-19T12:24:27.944Z,1.70
2018-03-19T12:26:55.627Z,1.60
2018-03-19T12:29:23.267Z,1.30
2018-03-19T12:31:51.536Z,1.70
2018-03-19T12:34:19.085Z,1.70
2018-03-19T12:36:46.658Z,1.90
2018-03-19T12:39:14.232Z,2.00
2018-03-19T12:41:41.775Z,2.00
2018-03-19T12:44:09.339Z,2.00
2018-03-19T12:46:36.912Z,2.00
2018-03-19T12:49:04.449Z,1.90
2018-03-19T12:51:32.037Z,1.70
2018-03-19T12:53:59.560Z,1.70
2018-03-19T12:56:27.141Z,1.80
2018-03-19T12:58:54.715Z,1.70
2018-03-19T13:01:22.254Z,1.60
2018-03-19T13:03:49.822Z,1.70
2018-03-19T13:06:17.373Z,1.90
2018-03-19T13:08:44.909Z,1.80
2018-03-19T13:11:14.240Z,1.40
2018-03-19T13:13:41.783Z,1.40
2018-03-19T13:16:09.351Z,1.40
2018-03-19T13:18:36.900Z,1.40
2018-03-19T13:21:04.464Z,1.60
2018-03-19T13:23:32.074Z,1.60
2018-03-19T13:25:59.608Z,1.40
2018-03-19T13:28:27.965Z,1.50
2018-03-19T13:30:55.513Z,1.50
2018-03-19T13:33:23.071Z,1.40
2018-03-19T13:35:50.650Z,1.70
2018-03-19T13:38:19.711Z,1.50
2018-03-19T13:40:47.378Z,1.50
2018-03-19T13:43:14.937Z,1.70
2018-03-19T13:45:42.516Z,1.50
2018-03-19T13:48:10.101Z,1.30
2018-03-19T13:50:37.638Z,1.10
2018-03-19T13:53:05.224Z,1.20
2018-03-19T13:55:33.537Z,1.10
2018-03-19T13:58:01.119Z,1.10
2018-03-19T14:00:28.656Z,1.20
2018-03-19T14:02:56.211Z,1.20
2018-03-19T14:05:23.807Z,1.20
2018-03-19T14:07:51.352Z,1.00
2018-03-19T14:10:18.938Z,1.00
2018-03-19T14:12:46.512Z,1.10
2018-03-19T14:15:14.080Z,1.10
2018-03-19T14:17:42.400Z,1.20
2018-03-19T14:20:09.953Z,1.10
2018-03-19T14:22:37.480Z,1.10
2018-03-19T14:25:05.808Z,1.40
2018-03-19T14:27:33.426Z,1.40
2018-03-19T14:30:00.947Z,1.30
2018-03-19T14:32:28.491Z,1.30
2018-03-19T14:34:56.302Z,1.50
2018-03-19T14:37:23.856Z,1.30
2018-03-19T14:39:51.397Z,1.40
2018-03-19T14:42:18.936Z,1.20
2018-03-19T14:44:46.498Z,1.10
2018-03-19T14:47:14.051Z,1.00
2018-03-19T14:49:41.611Z,1.10
2018-03-19T14:52:09.149Z,1.10
2018-03-19T14:54:36.759Z,1.00
2018-03-19T14:57:04.299Z,1.00
2018-03-19T14:59:31.851Z,1.00
2018-03-19T15:01:59.402Z,0.90
2018-03-19T15:04:26.953Z,0.60
2018-03-19T15:06:54.510Z,0.50
2018-03-19T15:09:22.086Z,0.50
2018-03-19T15:11:50.433Z,0.40
2018-03-19T15:14:17.961Z,0.40
2018-03-19T15:16:45.516Z,0.30
2018-03-19T15:19:13.060Z,0.10
2018-03-19T15:21:41.393Z,0.10
2018-03-19T15:24:08.956Z,0.10
2018-03-19T15:26:36.514Z,-0.10
2018-03-19T15:29:04.088Z,-0.10
2018-03-19T15:31:31.628Z,-0.20
2018-03-19T15:33:59.213Z,-0.10
2018-03-19T15:36:26.755Z,-0.20
2018-03-19T15:38:54.331Z,-0.20
2018-03-19T15:41:21.864Z,-0.30
2018-03-19T15:43:49.423Z,-0.20
2018-03-19T15:46:16.977Z,-0.20
2018-03-19T15:48:44.525Z,-0.20
2018-03-19T15:51:12.141Z,-0.30
2018-03-19T15:53:40.460Z,-0.20
2018-03-19T15:56:08.301Z,-0.30
2018-03-19T15:58:36.603Z,-0.30
2018-03-19T16:01:04.161Z,-0.40
2018-03-19T16:03:31.711Z,-0.50
2018-03-19T16:05:59.277Z,-0.40
2018-03-19T16:08:26.814Z,-0.40
2018-03-19T16:10:55.144Z,-0.50
2018-03-19T16:13:22.696Z,-0.50
2018-03-19T16:15:50.243Z,-0.50
2018-03-19T16:18:17.793Z,-0.60
2018-03-19T16:20:45.334Z,-0.60
2018-03-19T16:23:12.988Z,-0.60
2018-03-19T16:25:41.299Z,-0.60
2018-03-19T16:28:08.868Z,-0.60
2018-03-19T16:30:36.426Z,-0.70
2018-03-19T16:33:03.997Z,-0.60
2018-03-19T16:35:31.537Z,-0.70
2018-03-19T16:37:59.862Z,-0.80
2018-03-19T16:40:27.400Z,-0.80
2018-03-19T16:42:54.943Z,-0.80
2018-03-19T16:45:23.329Z,-0.70
2018-03-19T16:47:50.847Z,-0.70
2018-03-19T16:50:18.420Z,-0.80
2018-03-19T16:52:46.741Z,-0.80
2018-03-19T16:55:14.336Z,-0.80
2018-03-19T16:57:41.883Z,-0.90
2018-03-19T17:00:09.453Z,-0.90
2018-03-19T17:02:36.992Z,-0.90
2018-03-19T17:05:04.598Z,-1.00
2018-03-19T17:07:32.904Z,-0.90
2018-03-19T17:10:00.473Z,-1.00
2018-03-19T17:12:28.018Z,-1.00
2018-03-19T17:14:55.564Z,-1.00
2018-03-19T17:17:24.290Z,-1.00
2018-03-19T17:19:51.860Z,-1.00
2018-03-19T17:22:19.425Z,-1.10
2018-03-19T17:24:46.973Z,-1.10
2018-03-19T17:27:14.560Z,-1.10
2018-03-19T17:29:42.101Z,-1.20
2018-03-19T17:32:09.745Z,-1.10
2018-03-19T17:34:37.285Z,-1.20
2018-03-19T17:37:04.871Z,-1.10
2018-03-19T17:39:32.426Z,-1.20
2018-03-19T17:41:59.982Z,-1.10
2018-03-19T17:44:28.456Z,-1.10
2018-03-19T17:46:55.998Z,-1.20
2018-03-19T17:49:24.341Z,-1.20
2018-03-19T17:51:51.903Z,-1.20
2018-03-19T17:54:19.456Z,-1.30
2018-03-19T17:56:47.008Z,-1.30
2018-03-19T17:59:14.576Z,-1.30
2018-03-19T18:01:42.126Z,-1.20
2018-03-19T18:04:10.643Z,-1.30
2018-03-19T18:06:38.978Z,-1.30
2018-03-19T18:09:06.627Z,-1.30
2018-03-19T18:11:34.187Z,-1.30
2018-03-19T18:14:01.749Z,-1.30
2018-03-19T18:16:29.311Z,-1.30
2018-03-19T18:18:56.866Z,-1.30
2018-03-19T18:21:24.434Z,-1.20
2018-03-19T18:23:52.053Z,-1.20
2018-03-19T18:26:20.387Z,-1.40
2018-03-19T18:28:47.940Z,-1.40
2018-03-19T18:31:15.511Z,-1.40
2018-03-19T18:33:43.052Z,-1.40
2018-03-19T18:36:10.612Z,-1.30
2018-03-19T18:38:38.164Z,-1.30
2018-03-19T18:41:05.724Z,-1.30
2018-03-19T18:43:33.271Z,-1.40
2018-03-19T18:46:00.887Z,-1.50
2018-03-19T18:48:29.270Z,-1.50
2018-03-19T18:50:56.808Z,-1.50
2018-03-19T18:53:24.445Z,-1.30
2018-03-19T18:55:52.023Z,-1.30
2018-03-19T18:58:19.618Z,-1.40
2018-03-19T19:00:47.196Z,-1.50
2018-03-19T19:03:15.509Z,-1.40
2018-03-19T19:05:43.092Z,-1.40
2018-03-19T19:08:10.633Z,-1.50
2018-03-19T19:10:41.257Z,-1.50
2018-03-19T19:13:08.811Z,-1.70
2018-03-19T19:15:36.378Z,-1.70
2018-03-19T19:18:03.920Z,-1.80
2018-03-19T19:20:31.477Z,-1.60
2018-03-19T19:22:59.039Z,-1.60
2018-03-19T19:25:26.624Z,-1.60
2018-03-19T19:27:54.176Z,-1.60
2018-03-19T19:30:21.797Z,-1.60
2018-03-19T19:32:50.116Z,-1.60
2018-03-19T19:35:17.696Z,-1.60
2018-03-19T19:37:45.232Z,-1.60
2018-03-19T19:40:12.899Z,-1.60
2018-03-19T19:42:40.465Z,-1.70
2018-03-19T19:45:08.010Z,-1.70
2018-03-19T19:47:35.575Z,-1.70
2018-03-19T19:50:03.141Z,-1.70
2018-03-19T19:52:30.722Z,-1.70
2018-03-19T19:54:58.275Z,-1.60
2018-03-19T19:57:25.858Z,-1.60
2018-03-19T19:59:53.574Z,-1.60
2018-03-19T20:02:21.128Z,-1.70
2018-03-19T20:04:48.707Z,-1.70
2018-03-19T20:07:16.282Z,-1.70
2018-03-19T20:09:43.848Z,-1.70
2018-03-19T20:12:11.417Z,-1.70
2018-03-19T20:14:39.025Z,-1.80
2018-03-19T20:17:06.601Z,-1.70
2018-03-19T20:19:34.141Z,-1.70
2018-03-19T20:22:01.715Z,-1.70
2018-03-19T20:24:29.260Z,-1.70
2018-03-19T20:26:56.862Z,-1.70
2018-03-19T20:29:24.397Z,-1.80
2018-03-19T20:31:51.982Z,-1.70
2018-03-19T20:34:19.541Z,-1.70
2018-03-19T20:36:47.101Z,-1.70
2018-03-19T20:39:14.991Z,-1.80
2018-03-19T20:41:44.087Z,-1.80
2018-03-19T20:44:11.656Z,-1.80
2018-03-19T20:46:39.256Z,-1.80
2018-03-19T20:49:06.832Z,-1.80
2018-03-19T20:51:35.157Z,-1.80
2018-03-19T20:54:02.722Z,-1.90
2018-03-19T20:56:30.304Z,-1.90
2018-03-19T20:58:57.855Z,-1.70
2018-03-19T21:01:25.428Z,-1.80
2018-03-19T21:03:52.984Z,-1.80
2018-03-19T21:06:20.546Z,-1.80
2018-03-19T21:08:48.220Z,-1.70
2018-03-19T21:11:15.793Z,-1.80
2018-03-19T21:13:44.135Z,-1.70
2018-03-19T21:16:11.756Z,-1.70
2018-03-19T21:18:40.066Z,-1.90
2018-03-19T21:21:07.616Z,-1.90
2018-03-19T21:23:35.183Z,-1.90
2018-03-19T21:26:02.736Z,-1.90
2018-03-19T21:28:30.271Z,-1.90
2018-03-19T21:30:57.828Z,-2.00
2018-03-19T21:33:25.372Z,-2.00
2018-03-19T21:35:53.718Z,-1.90
2018-03-19T21:38:21.260Z,-2.00
2018-03-19T21:40:48.840Z,-2.00
2018-03-19T21:43:16.394Z,-2.00
2018-03-19T21:45:43.969Z,-2.00
2018-03-19T21:48:11.500Z,-2.00
2018-03-19T21:50:39.033Z,-1.90
2018-03-19T21:53:06.600Z,-1.90
2018-03-19T21:55:34.176Z,-1.90
2018-03-19T21:58:01.722Z,-1.90
2018-03-19T22:00:29.281Z,-1.90
2018-03-19T22:02:56.853Z,-1.90
2018-03-19T22:05:24.423Z,-1.90
2018-03-19T22:07:51.988Z,-1.80
2018-03-19T22:10:19.552Z,-1.80
2018-03-19T22:12:47.120Z,-1.70
2018-03-19T22:15:14.704Z,-1.70
2018-03-19T22:17:43.008Z,-1.80
2018-03-19T22:20:10.587Z,-1.80
2018-03-19T22:22:38.145Z,-1.70
2018-03-19T22:25:05.701Z,-1.80
2018-03-19T22:27:33.247Z,-1.80
2018-03-19T22:30:00.924Z,-1.80
2018-03-19T22:32:28.464Z,-1.70
2018-03-19T22:34:56.024Z,-1.80
2018-03-19T22:37:23.603Z,-1.90
2018-03-19T22:39:51.160Z,-1.80
2018-03-19T22:42:18.741Z,-1.80
2018-03-19T22:44:46.294Z,-1.80
2018-03-19T22:47:13.860Z,-1.90
2018-03-19T22:49:42.318Z,-1.90
2018-03-19T22:52:09.882Z,-1.90
2018-03-19T22:54:37.456Z,-1.80
2018-03-19T22:57:05.001Z,-1.70
2018-03-19T22:59:32.565Z,-1.70
2018-03-19T23:02:00.112Z,-1.70
2018-03-19T23:04:39.444Z,-1.70
2018-03-19T23:07:06.981Z,-1.70
2018-03-19T23:09:35.322Z,-1.90
2018-03-19T23:12:02.857Z,-1.90
2018-03-19T23:14:31.972Z,-1.90
2018-03-19T23:16:59.515Z,-2.00
2018-03-19T23:19:27.094Z,-2.00
2018-03-19T23:21:54.645Z,-1.90
2018-03-19T23:24:22.999Z,-1.90
2018-03-19T23:26:50.536Z,-1.90
2018-03-19T23:29:18.078Z,-1.90
2018-03-19T23:31:45.638Z,-2.00
2018-03-19T23:34:13.177Z,-2.10
2018-03-19T23:36:40.728Z,-2.00
2018-03-19T23:39:09.044Z,-2.00
2018-03-19T23:41:36.597Z,-2.00
2018-03-19T23:44:04.136Z,-2.10
2018-03-19T23:46:31.694Z,-2.20
2018-03-19T23:49:00.000Z,-2.30
2018-03-19T23:51:27.572Z,-2.30
2018-03-19T23:53:55.114Z,-2.30
2018-03-19T23:56:22.688Z,-2.30
2018-03-19T23:58:50.280Z,-2.40
